ADDS METAR Data INFO
IDs: Format: Raw Decoded Include TAF

Data at: 1503 UTC 11 Dec 2017

KARG 111456Z AUTO 19005KT 10SM CLR 05/00 A3011 RMK AO2 SLP200 T00500000 58006
KARG 111356Z AUTO 20004KT 10SM CLR 01/M02 A3012 RMK AO2 SLP203 T00111017 FZRANO
KARG 111256Z AUTO 20007KT 10SM CLR M01/M03 A3013 RMK AO2 SLP207 T10061028 FZRANO
KARG 111156Z AUTO 18004KT 10SM CLR M01/M03 A3013 RMK AO2 SLP207 T10111028 10044 21011 56013 FZRANO
KARG 111056Z AUTO 25003KT 10SM CLR 01/M03 A3014 RMK AO2 SLP210 T00111028 FZRANO
KARG 110956Z AUTO 00000KT 10SM CLR 00/M02 A3014 RMK AO2 SLP210 T00001022 FZRANO
KARG 110856Z AUTO 23004KT 10SM CLR 02/M03 A3017 RMK AO2 SLP219 T00171033 55002 FZRANO
KARG 110756Z AUTO 26005KT 10SM CLR 04/M03 A3017 RMK AO2 SLP217 T00441033
KARG 110656Z AUTO 23006KT 10SM CLR 02/M03 A3017 RMK AO2 SLP221 T00171033 FZRANO
KARG 110556Z AUTO 19004KT 10SM CLR 03/M03 A3018 RMK AO2 SLP222 T00281028 10083 20022 401561056 53001
KARG 110456Z AUTO 00000KT 10SM CLR 03/M02 A3018 RMK AO2 SLP221 T00331022
KARG 110356Z AUTO 00000KT 10SM CLR 04/M02 A3018 RMK AO2 SLP222 T00441022
KARG 110256Z AUTO 28007KT 10SM CLR 08/M02 A3017 RMK AO2 SLP222 T00781022 51017
KARG 110156Z AUTO 24008KT 10SM CLR 07/M01 A3015 RMK AO2 SLP215 T00721006
KARG 110056Z AUTO 21007KT 10SM CLR 07/01 A3015 RMK AO2 SLP213 T00720006
KARG 102356Z AUTO 21010KT 10SM CLR 07/01 A3012 RMK AO2 SLP204 T00720006 10156 20072 53011
KARG 102256Z AUTO 21009KT 10SM CLR 11/M02 A3010 RMK AO2 SLP198 T01061017
KARG 102156Z AUTO 21014KT 10SM CLR 14/M02 A3010 RMK AO2 SLP194 T01441022
KARG 102056Z AUTO 21012KT 10SM CLR 16/M03 A3009 RMK AO2 SLP192 T01561033 56019
KARG 101956Z AUTO 21016KT 10SM CLR 14/M03 A3010 RMK AO2 SLP194 T01441033
KARG 101856Z AUTO 21015KT 10SM CLR 13/M03 A3012 RMK AO2 SLP203 T01281028
KARG 101756Z AUTO 22018G23KT 10SM CLR 11/M03 A3015 RMK AO2 SLP212 T01061033 10106 21056 58033
KARG 101656Z AUTO 21015G20KT 10SM CLR 08/M03 A3018 RMK AO2 SLP224 T00831028
KARG 101556Z AUTO 20012KT 10SM CLR 04/M03 A3022 RMK AO2 SLP238 T00441028
KARG 101456Z AUTO 20010KT 10SM CLR 02/M03 A3025 RMK AO2 SLP246 T00171033 56007 FZRANO
KARG 101356Z AUTO 20006KT 10SM CLR M02/M04 A3025 RMK AO2 SLP250 T10221044 FZRANO
KARG 101256Z AUTO 18005KT 10SM CLR M05/M07 A3026 RMK AO2 SLP250 T10501067 FZRANO
KARG 101156Z AUTO 21004KT 10SM CLR M04/M07 A3027 RMK AO2 SLP254 T10441067 11006 21050 55005 FZRANO
KARG 101056Z AUTO 19004KT 10SM CLR M05/M06 A3027 RMK AO2 SLP254 T10501061 FZRANO
KARG 100956Z AUTO 24003KT 10SM CLR M04/M07 A3028 RMK AO2 SLP259 T10391067 FZRANO
KARG 100856Z AUTO 20003KT 10SM CLR M04/M06 A3028 RMK AO2 SLP259 T10391056 53001 FZRANO
KARG 100756Z AUTO 30004KT 10SM CLR M02/M07 A3028 RMK AO2 SLP258 T10221067 FZRANO
KARG 100656Z AUTO 31005KT 10SM CLR M01/M07 A3028 RMK AO2 SLP257 T10061067 FZRANO
KARG 100556Z AUTO 28003KT 10SM CLR M01/M07 A3028 RMK AO2 SLP258 T10061067 10028 21017 400721050 51013 FZRANO
KARG 100456Z AUTO 28003KT 10SM CLR M01/M07 A3027 RMK AO2 SLP255 T10111067 FZRANO
KARG 100356Z AUTO 00000KT 10SM CLR 01/M07 A3025 RMK AO2 SLP249 T00061072 FZRANO